createdAt,value
2019-01-16T00:02:38.347Z,36.80
2019-01-16T00:05:11.097Z,35.77
2019-01-16T00:07:42.795Z,36.53
2019-01-16T00:10:14.068Z,37.93
2019-01-16T00:12:45.518Z,46.43
2019-01-16T00:15:35.564Z,37.33
2019-01-16T00:18:06.744Z,30.67
2019-01-16T00:20:40.720Z,31.73
2019-01-16T00:23:12.268Z,31.63
2019-01-16T00:25:46.569Z,27.20
2019-01-16T00:28:17.833Z,28.47
2019-01-16T00:31:06.192Z,32.30
2019-01-16T00:33:50.206Z,29.37
2019-01-16T00:36:21.557Z,27.70
2019-01-16T00:39:08.181Z,29.47
2019-01-16T00:41:39.426Z,23.93
2019-01-16T00:44:10.834Z,29.07
2019-01-16T00:46:42.520Z,28.37
2019-01-16T00:49:15.120Z,27.47
2019-01-16T00:51:52.486Z,23.17
2019-01-16T00:54:23.617Z,25.07
2019-01-16T00:57:04.009Z,23.03
2019-01-16T00:59:51.215Z,29.03
2019-01-16T01:02:26.121Z,20.47
2019-01-16T01:05:15.111Z,28.77
2019-01-16T01:07:52.336Z,27.60
2019-01-16T01:10:23.574Z,24.80
2019-01-16T01:13:00.905Z,24.97
2019-01-16T01:15:41.358Z,22.27
2019-01-16T01:18:18.693Z,21.83
2019-01-16T01:21:06.245Z,24.03
2019-01-16T01:23:37.803Z,23.60
2019-01-16T01:26:12.169Z,21.00
2019-01-16T01:28:49.276Z,24.97
2019-01-16T01:31:26.347Z,28.73
2019-01-16T01:34:13.957Z,26.93
2019-01-16T01:36:48.532Z,23.80
2019-01-16T01:39:28.783Z,25.43
2019-01-16T01:42:03.563Z,27.73
2019-01-16T01:44:44.408Z,30.77
2019-01-16T01:47:32.456Z,32.63
2019-01-16T01:50:04.517Z,29.60
2019-01-16T01:52:41.744Z,32.00
2019-01-16T01:55:18.753Z,34.67
2019-01-16T01:58:04.874Z,33.93
2019-01-16T02:00:53.958Z,41.40
2019-01-16T02:03:41.078Z,35.23
2019-01-16T02:06:28.806Z,31.83
2019-01-16T02:08:59.929Z,34.67
2019-01-16T02:11:43.243Z,28.17
2019-01-16T02:14:20.557Z,32.63
2019-01-16T02:16:54.758Z,34.23
2019-01-16T02:19:41.047Z,27.00
2019-01-16T02:22:14.936Z,31.60
2019-01-16T02:25:02.565Z,33.47
2019-01-16T02:27:36.212Z,34.47
2019-01-16T02:30:12.707Z,30.27
2019-01-16T02:32:56.590Z,31.00
2019-01-16T02:35:27.985Z,30.70
2019-01-16T02:38:02.201Z,33.40
2019-01-16T02:40:46.648Z,31.70
2019-01-16T02:43:32.622Z,27.50
2019-01-16T02:46:20.069Z,33.93
2019-01-16T02:48:56.995Z,28.13
2019-01-16T02:51:39.606Z,30.90
2019-01-16T02:54:27.116Z,32.30
2019-01-16T02:56:58.704Z,31.07
2019-01-16T02:59:44.798Z,34.83
2019-01-16T03:02:16.776Z,31.17
2019-01-16T03:05:04.207Z,33.33
2019-01-16T03:07:41.210Z,33.23
2019-01-16T03:10:21.648Z,30.93
2019-01-16T03:12:53.200Z,33.93
2019-01-16T03:15:24.384Z,36.80
2019-01-16T03:18:16.781Z,30.20
2019-01-16T03:21:00.550Z,33.53
2019-01-16T03:23:34.840Z,28.37
2019-01-16T03:26:08.526Z,30.37
2019-01-16T03:28:42.705Z,31.10
2019-01-16T03:31:19.990Z,26.47
2019-01-16T03:33:51.375Z,33.57
2019-01-16T03:36:22.603Z,29.47
2019-01-16T03:39:02.667Z,32.63
2019-01-16T03:41:34.440Z,30.43
2019-01-16T03:44:21.966Z,28.33
2019-01-16T03:47:09.341Z,28.00
2019-01-16T03:49:43.539Z,29.03
2019-01-16T03:52:21.460Z,26.63
2019-01-16T03:54:55.501Z,32.70
2019-01-16T03:57:35.600Z,29.03
2019-01-16T04:00:27.906Z,27.40
2019-01-16T04:03:15.624Z,26.37
2019-01-16T04:05:59.813Z,27.93
2019-01-16T04:08:31.098Z,25.67
2019-01-16T04:11:02.656Z,26.03
2019-01-16T04:13:39.959Z,26.47
2019-01-16T04:16:11.157Z,27.90
2019-01-16T04:18:48.221Z,28.93
2019-01-16T04:21:21.675Z,28.23
2019-01-16T04:23:56.128Z,27.13
2019-01-16T04:26:43.253Z,29.97
2019-01-16T04:29:17.663Z,25.83
2019-01-16T04:32:00.726Z,28.27
2019-01-16T04:34:48.711Z,27.93
2019-01-16T04:37:25.789Z,24.80
2019-01-16T04:39:59.617Z,30.13
2019-01-16T04:42:33.329Z,29.97
2019-01-16T04:45:13.397Z,28.00
2019-01-16T04:48:00.949Z,28.00
2019-01-16T04:50:40.953Z,25.43
2019-01-16T04:53:15.965Z,30.03
2019-01-16T04:55:51.150Z,29.50
2019-01-16T04:58:24.622Z,26.03
2019-01-16T05:00:58.621Z,30.57
2019-01-16T05:03:35.380Z,30.70
2019-01-16T05:06:12.225Z,26.77
2019-01-16T05:08:59.437Z,28.67
2019-01-16T05:11:33.707Z,28.97
2019-01-16T05:14:04.631Z,27.10
2019-01-16T05:16:35.537Z,32.00
2019-01-16T05:19:09.972Z,31.40
2019-01-16T05:21:44.219Z,32.47
2019-01-16T05:24:21.175Z,28.47
2019-01-16T05:26:57.941Z,31.87
2019-01-16T05:29:43.531Z,35.03
2019-01-16T05:32:20.645Z,32.73
2019-01-16T05:34:51.888Z,35.47
2019-01-16T05:37:23.077Z,31.83
2019-01-16T05:40:04.617Z,36.83
2019-01-16T05:42:35.545Z,32.60
2019-01-16T05:45:15.221Z,33.57
2019-01-16T05:48:03.193Z,31.63
2019-01-16T05:50:34.630Z,35.03
2019-01-16T05:53:21.659Z,37.07
2019-01-16T05:55:56.929Z,34.93
2019-01-16T05:58:39.877Z,30.93
2019-01-16T06:01:10.821Z,37.40
2019-01-16T06:03:50.918Z,37.70
2019-01-16T06:06:21.890Z,35.20
2019-01-16T06:08:56.170Z,38.63
2019-01-16T06:11:29.925Z,35.10
2019-01-16T06:14:03.620Z,36.20
2019-01-16T06:16:40.382Z,37.53
2019-01-16T06:19:17.167Z,37.67
2019-01-16T06:21:48.078Z,31.73
2019-01-16T06:24:24.857Z,36.63
2019-01-16T06:26:56.115Z,36.37
2019-01-16T06:29:27.056Z,32.97
2019-01-16T06:32:01.150Z,35.37
2019-01-16T06:34:35.178Z,34.33
2019-01-16T06:37:09.698Z,36.40
2019-01-16T06:39:53.037Z,37.80
2019-01-16T06:42:27.017Z,39.07
2019-01-16T06:44:57.948Z,43.70
2019-01-16T06:47:31.893Z,37.70
2019-01-16T06:50:08.596Z,42.00
2019-01-16T06:52:54.605Z,44.60
2019-01-16T06:55:31.294Z,47.40
2019-01-16T06:58:18.379Z,41.77
2019-01-16T07:00:49.685Z,49.13
2019-01-16T07:03:23.726Z,44.57
2019-01-16T07:06:11.022Z,49.50
2019-01-16T07:08:58.025Z,47.97
2019-01-16T07:11:28.957Z,47.63
2019-01-16T07:13:59.886Z,46.07
2019-01-16T07:16:33.825Z,50.13
2019-01-16T07:19:08.170Z,47.47
2019-01-16T07:21:54.372Z,45.73
2019-01-16T07:24:28.245Z,48.77
2019-01-16T07:27:08.115Z,46.10
2019-01-16T07:29:46.526Z,46.53
2019-01-16T07:32:23.837Z,45.03
2019-01-16T07:34:59.655Z,44.63
2019-01-16T07:37:47.748Z,46.47
2019-01-16T07:40:19.044Z,43.57
2019-01-16T07:42:50.440Z,47.40
2019-01-16T07:45:30.870Z,44.37
2019-01-16T07:48:08.334Z,40.43
2019-01-16T07:50:43.039Z,46.07
2019-01-16T07:53:30.193Z,43.17
2019-01-16T07:56:03.497Z,46.03
2019-01-16T07:58:37.218Z,39.47
2019-01-16T08:01:13.421Z,41.40
2019-01-16T08:03:53.853Z,41.60
2019-01-16T08:06:27.794Z,38.73
2019-01-16T08:09:13.941Z,36.13
2019-01-16T08:11:53.649Z,36.13
2019-01-16T08:14:41.305Z,34.27
2019-01-16T08:17:19.451Z,33.53
2019-01-16T08:20:05.886Z,35.60
2019-01-16T08:22:42.698Z,33.60
2019-01-16T08:25:25.957Z,29.73
2019-01-16T08:28:06.388Z,33.13
2019-01-16T08:30:53.633Z,27.30
2019-01-16T08:33:24.588Z,32.23
2019-01-16T08:36:11.481Z,27.57
2019-01-16T08:39:01.760Z,25.50
2019-01-16T08:41:49.009Z,28.63
2019-01-16T08:44:19.977Z,27.47
2019-01-16T08:47:00.560Z,27.03
2019-01-16T08:49:31.793Z,23.93
2019-01-16T08:52:08.850Z,27.77
2019-01-16T08:54:39.795Z,25.70
2019-01-16T08:57:13.805Z,21.70
2019-01-16T09:00:00.748Z,24.90
2019-01-16T09:02:41.293Z,23.37
2019-01-16T09:05:14.022Z,22.47
2019-01-16T09:07:50.671Z,20.70
2019-01-16T09:10:21.668Z,25.27
2019-01-16T09:12:58.377Z,20.83
2019-01-16T09:15:41.382Z,25.33
2019-01-16T09:18:21.185Z,19.87
2019-01-16T09:21:10.026Z,19.73
2019-01-16T09:23:56.877Z,21.00
2019-01-16T09:26:27.819Z,18.77
2019-01-16T09:29:03.550Z,19.97
2019-01-16T09:31:36.215Z,19.07
2019-01-16T09:34:19.814Z,21.43
2019-01-16T09:36:51.161Z,19.00
2019-01-16T09:39:26.272Z,19.87
2019-01-16T09:42:01.214Z,19.33
2019-01-16T09:44:34.892Z,20.70
2019-01-16T09:47:06.652Z,19.83
2019-01-16T09:49:37.578Z,18.90
2019-01-16T09:52:11.855Z,21.47
2019-01-16T09:54:52.377Z,18.07
2019-01-16T09:57:40.173Z,18.33
2019-01-16T10:00:25.787Z,17.93
2019-01-16T10:02:57.188Z,19.47
2019-01-16T10:05:31.508Z,16.43
2019-01-16T10:08:02.684Z,18.90
2019-01-16T10:10:39.741Z,20.30
2019-01-16T10:13:10.713Z,18.93
2019-01-16T10:15:47.645Z,16.67
2019-01-16T10:18:21.360Z,20.57
2019-01-16T10:21:08.853Z,20.47
2019-01-16T10:23:40.126Z,19.63
2019-01-16T10:26:27.644Z,17.33
2019-01-16T10:29:04.374Z,19.03
2019-01-16T10:31:35.288Z,17.63
2019-01-16T10:34:09.426Z,21.13
2019-01-16T10:36:55.544Z,22.90
2019-01-16T10:39:32.081Z,22.13
2019-01-16T10:42:08.745Z,21.17
2019-01-16T10:44:52.291Z,22.67
2019-01-16T10:47:38.405Z,21.70
2019-01-16T10:50:11.962Z,22.10
2019-01-16T10:52:45.869Z,25.60
2019-01-16T10:55:19.849Z,26.33
2019-01-16T10:57:54.078Z,25.20
2019-01-16T11:00:30.841Z,22.57
2019-01-16T11:03:05.982Z,22.87
2019-01-16T11:05:45.776Z,25.07
2019-01-16T11:08:33.942Z,21.70
2019-01-16T11:11:22.826Z,23.57
2019-01-16T11:14:10.018Z,24.73
2019-01-16T11:16:47.141Z,24.87
2019-01-16T11:19:34.481Z,23.53
2019-01-16T11:22:11.489Z,24.13
2019-01-16T11:24:44.906Z,25.70
2019-01-16T11:27:32.340Z,25.67
2019-01-16T11:30:06.201Z,27.03
2019-01-16T11:32:37.437Z,26.33
2019-01-16T11:35:27.749Z,26.90
2019-01-16T11:38:08.026Z,26.17
2019-01-16T11:40:55.799Z,27.57
2019-01-16T11:43:29.729Z,32.40
2019-01-16T11:46:06.980Z,34.00
2019-01-16T11:48:49.923Z,31.83
2019-01-16T11:51:24.143Z,32.73
2019-01-16T11:53:55.092Z,32.63
2019-01-16T11:56:26.022Z,35.13
2019-01-16T11:59:12.173Z,31.37
2019-01-16T12:01:43.093Z,31.80
2019-01-16T12:04:19.834Z,30.90
2019-01-16T12:06:56.572Z,30.77
2019-01-16T12:09:43.661Z,27.43
2019-01-16T12:12:23.514Z,27.23
2019-01-16T12:15:00.858Z,28.23
2019-01-16T12:17:31.774Z,25.83
2019-01-16T12:20:09.229Z,29.40
2019-01-16T12:22:40.173Z,24.70
2019-01-16T12:25:27.897Z,25.77
2019-01-16T12:27:59.155Z,24.07
2019-01-16T12:30:38.945Z,24.33
2019-01-16T12:33:10.133Z,24.77
2019-01-16T12:35:41.059Z,21.97
2019-01-16T12:38:20.808Z,21.00
2019-01-16T12:41:00.873Z,19.33
2019-01-16T12:43:49.858Z,19.87
2019-01-16T12:46:20.771Z,19.30
2019-01-16T12:48:54.789Z,16.87
2019-01-16T12:51:33.598Z,17.23
2019-01-16T12:54:06.703Z,16.77
2019-01-16T12:56:40.617Z,18.00
2019-01-16T12:59:11.644Z,17.80
2019-01-16T13:01:45.445Z,18.70
2019-01-16T13:04:16.393Z,25.20
2019-01-16T13:06:47.772Z,19.13
2019-01-16T13:09:20.103Z,19.60
2019-01-16T13:11:51.890Z,22.80
2019-01-16T13:14:30.141Z,24.30
2019-01-16T13:17:13.402Z,25.20
2019-01-16T13:19:47.119Z,29.03
2019-01-16T13:22:23.725Z,29.83
2019-01-16T13:25:10.827Z,34.37
2019-01-16T13:27:57.655Z,33.17
2019-01-16T13:30:31.633Z,37.50
2019-01-16T13:33:11.333Z,32.37
2019-01-16T13:35:42.276Z,37.83
2019-01-16T13:38:17.841Z,35.53
2019-01-16T13:40:51.797Z,35.97
2019-01-16T13:43:35.325Z,36.67
2019-01-16T13:46:12.568Z,37.20
2019-01-16T13:49:00.076Z,35.13
2019-01-16T13:51:36.584Z,35.40
2019-01-16T13:54:10.349Z,37.93
2019-01-16T13:56:44.061Z,34.47
2019-01-16T13:59:31.270Z,32.50
2019-01-16T14:02:18.439Z,32.93
2019-01-16T14:04:54.870Z,32.03
2019-01-16T14:07:32.049Z,33.17
2019-01-16T14:10:09.018Z,30.23
2019-01-16T14:12:41.217Z,29.33
2019-01-16T14:15:24.684Z,30.10
2019-01-16T14:18:01.741Z,28.87
2019-01-16T14:20:35.440Z,30.93
2019-01-16T14:23:09.824Z,27.57
2019-01-16T14:25:41.084Z,31.60
2019-01-16T14:28:12.007Z,26.70
2019-01-16T14:30:52.085Z,26.07
2019-01-16T14:33:31.972Z,27.47
2019-01-16T14:36:11.940Z,31.20
2019-01-16T14:38:42.857Z,31.43
2019-01-16T14:41:19.853Z,32.43
2019-01-16T14:44:10.510Z,35.40
2019-01-16T14:47:00.330Z,36.77
2019-01-16T14:49:31.599Z,34.53
2019-01-16T14:52:02.692Z,36.23
2019-01-16T14:54:33.670Z,31.97
2019-01-16T14:57:04.596Z,31.03
2019-01-16T14:59:35.938Z,30.50
2019-01-16T15:02:25.265Z,28.13
2019-01-16T15:05:04.977Z,29.77
2019-01-16T15:07:41.459Z,29.27
2019-01-16T15:10:16.038Z,28.47
2019-01-16T15:12:47.006Z,23.70
2019-01-16T15:15:33.920Z,21.40
2019-01-16T15:18:07.565Z,21.93
2019-01-16T15:20:47.260Z,21.10
2019-01-16T15:23:18.548Z,19.20
2019-01-16T15:26:01.880Z,19.60
2019-01-16T15:28:33.057Z,20.07
2019-01-16T15:31:03.976Z,20.53
2019-01-16T15:33:50.110Z,18.93
2019-01-16T15:36:37.016Z,22.23
2019-01-16T15:39:16.249Z,19.57
2019-01-16T15:42:05.765Z,19.90
2019-01-16T15:44:46.681Z,21.00
2019-01-16T15:47:31.490Z,24.23
2019-01-16T15:50:14.385Z,21.43
2019-01-16T15:52:45.285Z,23.77
2019-01-16T15:55:16.224Z,20.73
2019-01-16T15:57:56.028Z,22.17
2019-01-16T16:00:27.578Z,23.10
2019-01-16T16:03:01.377Z,22.97
2019-01-16T16:05:35.097Z,24.17
2019-01-16T16:08:15.036Z,23.47
2019-01-16T16:10:46.145Z,23.07
2019-01-16T16:13:29.630Z,23.20
2019-01-16T16:16:19.321Z,26.07
2019-01-16T16:19:05.969Z,22.13
2019-01-16T16:21:42.693Z,24.63
2019-01-16T16:24:29.791Z,24.13
2019-01-16T16:27:09.572Z,22.03
2019-01-16T16:30:02.576Z,24.17
2019-01-16T16:32:36.239Z,26.80
2019-01-16T16:35:08.529Z,25.70
2019-01-16T16:37:55.472Z,22.60
2019-01-16T16:40:48.573Z,25.70
2019-01-16T16:43:28.714Z,26.97
2019-01-16T16:46:11.670Z,28.93
2019-01-16T16:48:43.552Z,27.23
2019-01-16T16:51:17.501Z,29.23
2019-01-16T16:53:54.472Z,31.30
2019-01-16T16:56:41.621Z,32.27
2019-01-16T16:59:24.892Z,33.87
2019-01-16T17:02:01.649Z,33.63
2019-01-16T17:04:35.685Z,33.90
2019-01-16T17:07:06.744Z,36.33
2019-01-16T17:09:43.932Z,35.50
2019-01-16T17:12:18.266Z,36.67
2019-01-16T17:15:05.560Z,36.87
2019-01-16T17:17:49.637Z,38.90
2019-01-16T17:20:26.405Z,35.73
2019-01-16T17:23:04.105Z,38.17
2019-01-16T17:25:38.042Z,38.87
2019-01-16T17:28:12.292Z,36.17
2019-01-16T17:30:43.701Z,36.33
2019-01-16T17:33:20.774Z,35.27
2019-01-16T17:36:01.009Z,40.50
2019-01-16T17:38:41.104Z,38.43
2019-01-16T17:41:28.755Z,37.50
2019-01-16T17:44:05.853Z,45.67
2019-01-16T17:46:52.865Z,44.50
2019-01-16T17:49:29.975Z,44.43
2019-01-16T17:52:01.110Z,47.13
2019-01-16T17:54:38.418Z,43.80
2019-01-16T17:57:25.417Z,38.90
2019-01-16T17:59:56.900Z,41.47
2019-01-16T18:02:27.817Z,41.07
2019-01-16T18:05:04.559Z,38.47
2019-01-16T18:07:35.488Z,43.50
2019-01-16T18:10:08.705Z,41.20
2019-01-16T18:12:48.954Z,43.87
2019-01-16T18:15:36.389Z,41.27
2019-01-16T18:18:07.704Z,43.30
2019-01-16T18:20:39.482Z,42.97
2019-01-16T18:23:13.418Z,39.53
2019-01-16T18:26:00.377Z,47.13
2019-01-16T18:28:43.069Z,39.57
2019-01-16T18:31:26.397Z,42.93
2019-01-16T18:34:00.090Z,44.87
2019-01-16T18:36:46.269Z,41.33
2019-01-16T18:39:25.956Z,40.27
2019-01-16T18:41:57.296Z,37.70
2019-01-16T18:44:28.469Z,42.10
2019-01-16T18:47:05.517Z,34.73
2019-01-16T18:49:39.581Z,39.00
2019-01-16T18:52:28.645Z,32.40
2019-01-16T18:55:16.578Z,32.83
2019-01-16T18:57:47.536Z,30.60
2019-01-16T19:00:20.517Z,33.33
2019-01-16T19:03:06.329Z,33.07
2019-01-16T19:05:39.898Z,33.17
2019-01-16T19:08:19.646Z,30.73
2019-01-16T19:11:07.032Z,31.33
2019-01-16T19:13:41.207Z,28.67
2019-01-16T19:16:12.136Z,27.77
2019-01-16T19:18:52.291Z,29.87
2019-01-16T19:21:23.216Z,28.13
2019-01-16T19:23:57.664Z,33.33
2019-01-16T19:26:31.381Z,27.73
2019-01-16T19:29:05.469Z,27.70
2019-01-16T19:31:53.215Z,30.23
2019-01-16T19:34:33.602Z,29.80
2019-01-16T19:37:22.350Z,35.33
2019-01-16T19:40:04.984Z,35.30
2019-01-16T19:42:38.965Z,29.37
2019-01-16T19:45:28.349Z,32.87
2019-01-16T19:48:15.827Z,34.53
2019-01-16T19:51:01.621Z,39.17
2019-01-16T19:53:32.554Z,41.83
2019-01-16T19:56:05.983Z,38.33
2019-01-16T19:58:38.114Z,41.60
2019-01-16T20:01:12.055Z,38.17
2019-01-16T20:03:45.987Z,43.80
2019-01-16T20:06:44.076Z,42.10
2019-01-16T20:09:18.116Z,44.03
2019-01-16T20:11:52.282Z,46.57
2019-01-16T20:14:32.024Z,43.83
2019-01-16T20:17:07.251Z,44.23
2019-01-16T20:19:38.192Z,40.57
2019-01-16T20:22:15.230Z,37.93
2019-01-16T20:24:53.306Z,43.03
2019-01-16T20:27:34.624Z,35.83
2019-01-16T20:30:06.962Z,40.00
2019-01-16T20:32:37.913Z,39.70
2019-01-16T20:35:12.806Z,44.63
2019-01-16T20:37:43.747Z,42.10
2019-01-16T20:40:18.231Z,40.23
2019-01-16T20:42:58.601Z,39.53
2019-01-16T20:45:29.962Z,37.07
2019-01-16T20:48:18.891Z,40.53
2019-01-16T20:51:06.077Z,44.60
2019-01-16T20:53:53.334Z,42.03
2019-01-16T20:56:25.069Z,42.60
2019-01-16T20:59:04.821Z,37.33
2019-01-16T21:01:39.362Z,39.97
2019-01-16T21:04:16.391Z,40.87
2019-01-16T21:06:47.368Z,40.17
2019-01-16T21:09:21.354Z,44.60
2019-01-16T21:11:52.278Z,39.87
2019-01-16T21:14:40.057Z,42.30
2019-01-16T21:17:17.041Z,39.43
2019-01-16T21:20:03.631Z,42.67
2019-01-16T21:22:42.471Z,38.33
2019-01-16T21:25:16.335Z,41.53
2019-01-16T21:27:49.636Z,37.60
2019-01-16T21:30:36.925Z,38.37
2019-01-16T21:33:24.737Z,35.27
2019-01-16T21:36:13.825Z,39.67
2019-01-16T21:38:48.129Z,37.83
2019-01-16T21:41:22.115Z,37.13
2019-01-16T21:44:09.054Z,38.83
2019-01-16T21:46:56.837Z,39.20
2019-01-16T21:49:36.932Z,34.17
2019-01-16T21:52:08.020Z,37.63
2019-01-16T21:54:48.107Z,36.57
2019-01-16T21:57:21.832Z,33.57
2019-01-16T21:59:52.863Z,37.13
2019-01-16T22:02:32.510Z,38.27
2019-01-16T22:05:04.325Z,36.63
2019-01-16T22:07:53.149Z,43.40
2019-01-16T22:10:24.704Z,40.40
2019-01-16T22:13:05.036Z,45.12
2019-01-16T22:15:35.894Z,41.33
2019-01-16T22:18:13.287Z,40.77
2019-01-16T22:20:44.397Z,45.57
2019-01-16T22:23:21.589Z,44.37
2019-01-16T22:25:52.893Z,42.70
2019-01-16T22:28:29.612Z,40.80
2019-01-16T22:31:20.304Z,45.27
2019-01-16T22:33:51.482Z,46.63
2019-01-16T22:36:31.308Z,51.80
2019-01-16T22:39:02.264Z,45.73
2019-01-16T22:41:45.560Z,49.60
2019-01-16T22:44:16.496Z,47.80
2019-01-16T22:46:50.156Z,45.03
2019-01-16T22:49:23.584Z,45.67
2019-01-16T22:52:06.929Z,49.80
2019-01-16T22:54:41.028Z,44.87
2019-01-16T22:57:21.532Z,44.90
2019-01-16T22:59:52.808Z,45.80
2019-01-16T23:02:29.937Z,50.13
2019-01-16T23:05:17.345Z,46.47
2019-01-16T23:07:54.054Z,42.80
2019-01-16T23:10:25.448Z,49.23
2019-01-16T23:12:56.374Z,51.90
2019-01-16T23:15:30.093Z,49.90
2019-01-16T23:18:16.001Z,50.00
2019-01-16T23:20:50.715Z,47.63
2019-01-16T23:23:38.501Z,51.43
2019-01-16T23:26:09.481Z,49.60
2019-01-16T23:28:46.170Z,50.67
2019-01-16T23:31:22.890Z,45.07
2019-01-16T23:34:06.890Z,46.80
2019-01-16T23:36:38.314Z,48.00
2019-01-16T23:39:19.176Z,44.83
2019-01-16T23:41:50.121Z,48.33
2019-01-16T23:44:30.281Z,49.20
2019-01-16T23:47:13.449Z,49.73
2019-01-16T23:49:59.736Z,43.83
2019-01-16T23:52:31.017Z,47.17
2019-01-16T23:55:17.636Z,45.37
2019-01-16T23:57:51.844Z,46.87
